Time;durP1;ratioP1;P1;durP2;ratioP2;P2;SDS_P1;SDS_P2;PMS_P1;PMS_P2;Temp;Humidity;BMP_temperature;BMP_pressure;BME280_temperature;BME280_humidity;BME280_pressure;Samples;Min_cycle;Max_cycle;Signal;HPM_P1;HPM_P2
2021/03/23 00:00:33;;;;;;;15.13;7.70;;;6.00;99.90;;;;;;4177438;28;20479;-51
2021/03/23 00:02:34;;;;;;;13.50;7.17;;;6.00;99.90;;;;;;4177540;28;20504;-54
2021/03/23 00:04:36;;;;;;;14.83;6.83;;;6.00;99.90;;;;;;4178807;28;20484;-50
2021/03/23 00:06:37;;;;;;;11.57;6.43;;;6.00;99.90;;;;;;4177355;28;20477;-50
2021/03/23 00:08:41;;;;;;;13.33;6.80;;;5.90;99.90;;;;;;4177280;28;20506;-50
2021/03/23 00:10:42;;;;;;;14.40;6.80;;;6.00;99.90;;;;;;4179118;28;20485;-51
2021/03/23 00:12:44;;;;;;;14.37;7.43;;;6.00;99.90;;;;;;4178343;28;21009;-53
2021/03/23 00:14:45;;;;;;;19.20;8.30;;;5.90;99.90;;;;;;4179135;28;20791;-50
2021/03/23 00:16:47;;;;;;;14.77;7.10;;;5.90;99.90;;;;;;4179089;28;20470;-50
2021/03/23 00:18:49;;;;;;;19.70;8.93;;;5.90;99.90;;;;;;4179409;28;20461;-54
2021/03/23 00:20:51;;;;;;;16.80;7.87;;;5.90;99.90;;;;;;4179250;28;20500;-51
2021/03/23 00:22:52;;;;;;;17.83;7.70;;;5.90;99.90;;;;;;4176454;28;20539;-52
2021/03/23 00:24:53;;;;;;;21.10;8.87;;;5.90;99.90;;;;;;4177198;28;20565;-52
2021/03/23 00:26:55;;;;;;;16.17;8.30;;;5.80;99.90;;;;;;4176938;28;20483;-52
2021/03/23 00:28:57;;;;;;;17.83;8.47;;;5.90;99.90;;;;;;4177823;28;20472;-52
2021/03/23 00:30:59;;;;;;;21.73;9.30;;;5.90;99.90;;;;;;4177624;28;20492;-52
2021/03/23 00:33:00;;;;;;;17.47;8.40;;;5.80;99.90;;;;;;4176020;28;20480;-52
2021/03/23 00:35:02;;;;;;;16.97;8.13;;;5.80;99.90;;;;;;4176400;28;20502;-52
2021/03/23 00:37:04;;;;;;;17.73;8.53;;;5.80;99.90;;;;;;4176144;28;20480;-52
2021/03/23 00:39:07;;;;;;;18.90;8.33;;;5.80;99.90;;;;;;4176370;28;20909;-55
2021/03/23 00:41:09;;;;;;;17.63;8.63;;;5.80;99.90;;;;;;4176776;28;20520;-52
2021/03/23 00:43:11;;;;;;;16.07;8.77;;;5.80;99.90;;;;;;4177110;28;20491;-52
2021/03/23 00:45:15;;;;;;;16.93;8.43;;;5.80;99.90;;;;;;4177650;28;20472;-52
2021/03/23 00:47:16;;;;;;;16.33;7.87;;;5.80;99.90;;;;;;4178774;28;21201;-52
2021/03/23 00:49:18;;;;;;;19.23;8.67;;;5.80;99.90;;;;;;4179252;28;21026;-53
2021/03/23 00:51:19;;;;;;;17.60;8.30;;;5.80;99.90;;;;;;4177122;28;20507;-52
2021/03/23 00:53:20;;;;;;;19.23;8.30;;;5.80;99.90;;;;;;4176384;28;20468;-52
2021/03/23 00:55:22;;;;;;;18.50;8.50;;;5.80;99.90;;;;;;4176798;28;20482;-52
2021/03/23 00:57:23;;;;;;;18.07;8.20;;;5.80;99.90;;;;;;4177374;28;20975;-52
2021/03/23 00:59:24;;;;;;;18.33;8.33;;;5.70;99.90;;;;;;4177305;28;20461;-52
2021/03/23 01:01:26;;;;;;;17.90;8.73;;;5.70;99.90;;;;;;4177124;28;20468;-52
2021/03/23 01:03:28;;;;;;;18.70;8.57;;;5.70;99.90;;;;;;4179325;28;20502;-52
2021/03/23 01:05:32;;;;;;;18.53;7.60;;;5.70;99.90;;;;;;4178821;28;20747;-55
2021/03/23 01:07:33;;;;;;;14.97;7.90;;;5.70;99.90;;;;;;4180100;28;20894;-52
2021/03/23 01:09:35;;;;;;;14.97;7.80;;;5.70;99.90;;;;;;4179302;28;20993;-52
2021/03/23 01:11:36;;;;;;;17.33;8.53;;;5.70;99.90;;;;;;4178746;28;20491;-54
2021/03/23 01:13:38;;;;;;;17.83;8.43;;;5.70;99.90;;;;;;4181305;28;20472;-52
2021/03/23 01:15:39;;;;;;;15.63;8.63;;;5.70;99.90;;;;;;4180963;28;20470;-51
2021/03/23 01:17:42;;;;;;;19.00;9.37;;;5.70;99.90;;;;;;4180969;28;20927;-52
2021/03/23 01:19:43;;;;;;;18.80;8.60;;;5.70;99.90;;;;;;4180900;28;20468;-52
2021/03/23 01:21:44;;;;;;;17.73;8.57;;;5.70;99.90;;;;;;4181655;28;20483;-51
2021/03/23 01:23:46;;;;;;;17.77;8.27;;;5.70;99.90;;;;;;4181258;28;20502;-52
2021/03/23 01:25:47;;;;;;;15.43;7.80;;;5.60;99.90;;;;;;4181512;28;20560;-52
2021/03/23 01:27:49;;;;;;;16.97;8.50;;;5.60;99.90;;;;;;4180779;28;20468;-52
2021/03/23 01:29:51;;;;;;;16.13;7.80;;;5.60;99.90;;;;;;4182194;28;20516;-51
2021/03/23 01:31:52;;;;;;;15.93;7.50;;;5.60;99.90;;;;;;4180454;28;20472;-52
2021/03/23 01:33:54;;;;;;;17.43;8.77;;;5.60;99.90;;;;;;4179321;28;20934;-52
2021/03/23 01:35:56;;;;;;;16.30;8.33;;;5.60;99.90;;;;;;4178805;28;20490;-53
2021/03/23 01:37:57;;;;;;;13.70;7.13;;;5.60;99.90;;;;;;4178075;28;20942;-52
2021/03/23 01:39:59;;;;;;;16.30;8.33;;;5.60;99.90;;;;;;4179853;28;20476;-52
2021/03/23 01:42:00;;;;;;;13.53;7.10;;;5.60;99.90;;;;;;4179621;28;21106;-52
2021/03/23 01:44:01;;;;;;;13.20;6.97;;;5.60;99.90;;;;;;4177996;28;20549;-51
2021/03/23 01:46:39;;;;;;;15.90;7.57;;;5.70;99.90;;;;;;4178954;28;20952;-52
2021/03/23 01:48:40;;;;;;;13.20;6.80;;;5.60;99.90;;;;;;4179203;28;20739;-51
2021/03/23 01:50:46;;;;;;;12.77;6.57;;;5.70;99.90;;;;;;4178999;28;20839;-52
2021/03/23 01:52:54;;;;;;;15.60;6.47;;;5.60;99.90;;;;;;4178355;28;20475;-52
2021/03/23 01:55:00;;;;;;;13.40;6.50;;;5.60;99.90;;;;;;4178811;28;20507;-51
2021/03/23 01:57:07;;;;;;;12.60;6.37;;;5.60;99.90;;;;;;4181116;28;20469;-52
2021/03/23 01:59:09;;;;;;;12.77;6.17;;;5.60;99.90;;;;;;4180188;28;20483;-52
2021/03/23 02:01:14;;;;;;;12.20;6.20;;;5.60;99.90;;;;;;4179915;28;20472;-52
2021/03/23 02:03:16;;;;;;;12.60;6.30;;;5.60;99.90;;;;;;4180274;28;20499;-52
2021/03/23 02:05:26;;;;;;;12.87;6.50;;;5.60;99.90;;;;;;4178692;28;20476;-52
2021/03/23 02:07:28;;;;;;;12.83;6.00;;;5.60;99.90;;;;;;4179892;28;20558;-51
2021/03/23 02:09:32;;;;;;;12.60;6.40;;;5.60;99.90;;;;;;4179709;28;20465;-52
2021/03/23 02:11:40;;;;;;;11.33;6.10;;;5.60;99.90;;;;;;4177764;28;20839;-51
2021/03/23 02:13:41;;;;;;;12.30;6.17;;;5.60;99.90;;;;;;4180273;28;20487;-51
2021/03/23 02:15:42;;;;;;;10.70;5.90;;;5.60;99.90;;;;;;4180163;28;20477;-52
2021/03/23 02:17:44;;;;;;;12.27;6.27;;;5.60;99.90;;;;;;4179588;28;20480;-52
2021/03/23 02:19:46;;;;;;;11.20;5.53;;;5.60;99.90;;;;;;4178581;28;20464;-51
2021/03/23 02:21:48;;;;;;;11.47;5.83;;;5.60;99.90;;;;;;4177129;28;20480;-53
2021/03/23 02:23:52;;;;;;;11.43;6.10;;;5.60;99.90;;;;;;4178304;28;20492;-53
2021/03/23 02:25:53;;;;;;;10.20;5.60;;;5.60;99.90;;;;;;4179474;28;20461;-52
2021/03/23 02:27:55;;;;;;;13.43;6.63;;;5.60;99.90;;;;;;4179249;28;20469;-53
2021/03/23 02:29:59;;;;;;;15.07;6.63;;;5.60;99.90;;;;;;4178727;28;20472;-53
2021/03/23 02:32:01;;;;;;;14.27;6.60;;;5.60;99.90;;;;;;4179063;28;20473;-53
2021/03/23 02:34:05;;;;;;;13.40;7.03;;;5.60;99.90;;;;;;4178668;28;20498;-53
2021/03/23 02:36:07;;;;;;;12.77;6.60;;;5.50;99.90;;;;;;4179228;28;20469;-53
2021/03/23 02:38:09;;;;;;;14.50;7.30;;;5.50;99.90;;;;;;4178212;28;20523;-53
2021/03/23 02:40:11;;;;;;;14.90;7.00;;;5.50;99.90;;;;;;4179499;28;20473;-53
2021/03/23 02:42:13;;;;;;;16.73;8.60;;;5.50;99.90;;;;;;4178644;28;20464;-53
2021/03/23 02:44:15;;;;;;;16.23;8.50;;;5.50;99.90;;;;;;4179571;28;20947;-53
2021/03/23 02:46:17;;;;;;;18.67;8.50;;;5.50;99.90;;;;;;4178085;28;20487;-53
2021/03/23 02:48:18;;;;;;;16.63;8.67;;;5.50;99.90;;;;;;4178848;28;20476;-52
2021/03/23 02:50:20;;;;;;;17.53;8.03;;;5.50;99.90;;;;;;4177884;28;20469;-53
2021/03/23 02:52:21;;;;;;;19.90;9.20;;;5.50;99.90;;;;;;4177255;28;20487;-53
2021/03/23 02:54:23;;;;;;;17.33;8.90;;;5.50;99.90;;;;;;4177646;28;20790;-53
2021/03/23 02:56:24;;;;;;;22.40;9.03;;;5.50;99.90;;;;;;4177937;28;20512;-53
2021/03/23 02:58:26;;;;;;;20.50;9.77;;;5.50;99.90;;;;;;4177605;28;20488;-53
2021/03/23 03:00:27;;;;;;;16.00;8.97;;;5.50;99.90;;;;;;4178787;28;20467;-53
2021/03/23 03:02:29;;;;;;;20.47;10.37;;;5.50;99.90;;;;;;4158897;28;590285;-53
2021/03/23 03:04:31;;;;;;;20.77;10.43;;;5.50;99.90;;;;;;4179752;28;20213;-52
2021/03/23 03:06:32;;;;;;;20.63;10.50;;;5.50;99.90;;;;;;4179185;28;20473;-53
2021/03/23 03:08:34;;;;;;;22.93;11.23;;;5.50;99.90;;;;;;4178377;28;20460;-53
2021/03/23 03:10:37;;;;;;;25.13;11.73;;;5.50;99.90;;;;;;4178877;28;20956;-50
2021/03/23 03:12:38;;;;;;;22.50;11.07;;;5.50;99.90;;;;;;4179217;28;20519;-50
2021/03/23 03:14:39;;;;;;;22.97;11.70;;;5.50;99.90;;;;;;4178647;28;20464;-50
2021/03/23 03:16:41;;;;;;;26.53;13.13;;;5.50;99.90;;;;;;4179692;28;20472;-50
2021/03/23 03:18:42;;;;;;;27.13;12.00;;;5.50;99.90;;;;;;4178188;28;20487;-51
2021/03/23 03:20:44;;;;;;;25.37;11.50;;;5.50;99.90;;;;;;4179702;28;20472;-50
2021/03/23 03:22:45;;;;;;;25.43;12.30;;;5.50;99.70;;;;;;4178380;28;20499;-50
2021/03/23 03:24:46;;;;;;;25.23;12.23;;;5.50;99.60;;;;;;4178764;28;20464;-50
2021/03/23 03:26:49;;;;;;;23.50;11.77;;;5.50;99.50;;;;;;4179534;28;20531;-52
2021/03/23 03:28:51;;;;;;;21.07;10.50;;;5.50;99.40;;;;;;4179146;28;20477;-53
2021/03/23 03:30:53;;;;;;;22.60;11.20;;;5.50;99.30;;;;;;4178881;28;20473;-53
2021/03/23 03:32:55;;;;;;;23.27;10.77;;;5.50;99.20;;;;;;4179563;28;20958;-53
2021/03/23 03:34:57;;;;;;;23.50;10.93;;;5.50;99.10;;;;;;4178876;28;20465;-53
2021/03/23 03:36:58;;;;;;;22.83;10.63;;;5.50;98.90;;;;;;4178434;28;20506;-53
2021/03/23 03:38:59;;;;;;;23.87;11.43;;;5.50;98.80;;;;;;4178427;28;20473;-53
2021/03/23 03:41:01;;;;;;;24.53;12.23;;;5.50;98.50;;;;;;4179134;28;20561;-53
2021/03/23 03:43:04;;;;;;;23.53;11.37;;;5.50;98.40;;;;;;4178634;28;20508;-52
2021/03/23 03:45:08;;;;;;;24.90;11.73;;;5.50;98.10;;;;;;4179128;28;20463;-52
2021/03/23 03:47:11;;;;;;;22.67;11.17;;;5.50;98.00;;;;;;4179178;28;20463;-52
2021/03/23 03:49:13;;;;;;;23.77;12.10;;;5.50;98.10;;;;;;4178394;28;20526;-52
2021/03/23 03:51:14;;;;;;;22.73;11.17;;;5.50;97.70;;;;;;4176978;28;20469;-53
2021/03/23 03:53:15;;;;;;;22.00;11.33;;;5.50;97.70;;;;;;4177387;28;20465;-53
2021/03/23 03:55:19;;;;;;;20.57;10.40;;;5.50;97.70;;;;;;4176038;28;20468;-52
2021/03/23 03:57:20;;;;;;;21.37;10.57;;;5.50;97.70;;;;;;4176121;28;20468;-53
2021/03/23 03:59:22;;;;;;;19.07;9.63;;;5.50;97.70;;;;;;4177029;28;20814;-53
2021/03/23 04:01:24;;;;;;;18.87;9.70;;;5.50;97.70;;;;;;4176816;28;21032;-53
2021/03/23 04:03:28;;;;;;;21.73;11.13;;;5.50;97.70;;;;;;4177210;28;20495;-52
2021/03/23 04:05:32;;;;;;;19.90;10.17;;;5.50;97.70;;;;;;4176606;28;21103;-53
2021/03/23 04:07:34;;;;;;;23.77;10.27;;;5.50;97.60;;;;;;4176901;28;20471;-53
2021/03/23 04:09:35;;;;;;;19.97;9.93;;;5.50;97.60;;;;;;4176937;28;22476;-53
2021/03/23 04:11:36;;;;;;;21.70;10.70;;;5.50;97.60;;;;;;4175863;28;20472;-53
2021/03/23 04:13:38;;;;;;;21.50;10.20;;;5.50;97.60;;;;;;4176431;28;20470;-53
2021/03/23 04:15:42;;;;;;;21.63;10.47;;;5.50;97.60;;;;;;4176802;28;21096;-53
2021/03/23 04:17:43;;;;;;;24.47;11.50;;;5.50;97.60;;;;;;4176984;28;20487;-53
2021/03/23 04:19:45;;;;;;;24.17;11.00;;;5.50;97.60;;;;;;4176383;28;20468;-53
2021/03/23 04:21:46;;;;;;;21.43;10.10;;;5.50;97.50;;;;;;4176311;28;20851;-52
2021/03/23 04:23:47;;;;;;;20.47;9.93;;;5.50;97.50;;;;;;4176117;28;20495;-53
2021/03/23 04:25:49;;;;;;;22.97;11.07;;;5.50;97.40;;;;;;4176746;28;20488;-53
2021/03/23 04:27:51;;;;;;;23.10;11.70;;;5.50;97.40;;;;;;4176912;28;20476;-53
2021/03/23 04:29:52;;;;;;;22.97;11.53;;;5.50;97.20;;;;;;4177519;28;20495;-53
2021/03/23 04:31:55;;;;;;;20.67;10.10;;;5.40;97.20;;;;;;4176434;28;20529;-52
2021/03/23 04:33:56;;;;;;;23.53;11.13;;;5.50;97.20;;;;;;4176632;28;20533;-52
2021/03/23 04:36:00;;;;;;;21.17;10.70;;;5.50;97.20;;;;;;4176500;28;20478;-52
2021/03/23 04:38:01;;;;;;;23.33;12.07;;;5.40;96.90;;;;;;4176605;28;20846;-51
2021/03/23 04:40:04;;;;;;;18.87;10.10;;;5.40;96.90;;;;;;4176255;28;20476;-51
2021/03/23 04:42:06;;;;;;;21.87;11.33;;;5.50;97.00;;;;;;4176309;28;20464;-52
2021/03/23 04:44:08;;;;;;;22.47;10.80;;;5.50;96.90;;;;;;4175489;28;20493;-52
2021/03/23 04:46:10;;;;;;;18.47;10.07;;;5.50;96.90;;;;;;4175673;28;20552;-52
2021/03/23 04:48:13;;;;;;;21.63;11.00;;;5.50;96.90;;;;;;4176616;28;20968;-52
2021/03/23 04:50:16;;;;;;;20.23;10.47;;;5.50;96.90;;;;;;4175033;28;20474;-52
2021/03/23 04:52:17;;;;;;;18.97;9.73;;;5.50;97.20;;;;;;4176317;28;20537;-52
2021/03/23 04:54:19;;;;;;;19.83;10.13;;;5.50;96.80;;;;;;4176707;28;20464;-51
2021/03/23 04:56:23;;;;;;;18.53;9.40;;;5.50;96.80;;;;;;4176372;28;20487;-52
2021/03/23 04:58:26;;;;;;;17.83;8.73;;;5.50;96.80;;;;;;4176084;28;20591;-52
2021/03/23 05:00:27;;;;;;;20.83;9.77;;;5.50;96.80;;;;;;4176209;28;20952;-52
2021/03/23 05:02:28;;;;;;;17.33;9.23;;;5.50;96.80;;;;;;4176534;28;20626;-52
2021/03/23 05:04:31;;;;;;;17.77;9.20;;;5.50;96.80;;;;;;4176625;28;20552;-51
2021/03/23 05:06:32;;;;;;;15.87;8.60;;;5.40;96.80;;;;;;4176712;28;20815;-52
2021/03/23 05:08:35;;;;;;;16.33;8.00;;;5.50;96.80;;;;;;4176487;28;20472;-52
2021/03/23 05:10:37;;;;;;;17.17;8.53;;;5.40;96.80;;;;;;4176880;28;20476;-52
2021/03/23 05:12:39;;;;;;;16.53;8.83;;;5.50;96.90;;;;;;4175952;28;20465;-52
2021/03/23 05:14:40;;;;;;;15.70;8.07;;;5.50;97.00;;;;;;4175904;28;22245;-52
2021/03/23 05:16:41;;;;;;;14.73;8.13;;;5.40;97.00;;;;;;4175589;28;20473;-52
2021/03/23 05:18:43;;;;;;;19.50;9.50;;;5.50;97.10;;;;;;4176617;28;20472;-52
2021/03/23 05:20:45;;;;;;;17.77;9.07;;;5.50;97.10;;;;;;4176340;28;20546;-52
2021/03/23 05:22:46;;;;;;;18.13;9.90;;;5.50;97.30;;;;;;4175805;28;20488;-51
2021/03/23 05:24:48;;;;;;;17.40;9.80;;;5.50;97.40;;;;;;4176677;28;20479;-52
2021/03/23 05:26:49;;;;;;;19.67;10.17;;;5.50;97.50;;;;;;4175552;28;20472;-52
2021/03/23 05:28:50;;;;;;;21.03;10.70;;;5.50;97.70;;;;;;4176416;28;20481;-51
2021/03/23 05:30:53;;;;;;;21.03;10.43;;;5.50;97.70;;;;;;4176463;28;20824;-52
2021/03/23 05:32:54;;;;;;;23.40;11.73;;;5.50;97.70;;;;;;4176174;28;20468;-52
2021/03/23 05:34:55;;;;;;;21.07;11.50;;;5.50;97.60;;;;;;4176047;28;20512;-52
2021/03/23 05:36:57;;;;;;;20.60;10.43;;;5.50;97.70;;;;;;4176265;28;20472;-52
2021/03/23 05:38:59;;;;;;;20.70;10.43;;;5.50;97.80;;;;;;4174398;28;20467;-52
2021/03/23 05:41:04;;;;;;;21.93;11.93;;;5.50;97.70;;;;;;4176084;28;20593;-52
2021/03/23 05:43:24;;;;;;;25.33;11.70;;;5.50;97.70;;;;;;4176592;28;20495;-52
2021/03/23 05:45:33;;;;;;;22.50;11.50;;;5.50;97.70;;;;;;4175302;28;20483;-51
2021/03/23 05:47:37;;;;;;;22.00;10.90;;;5.50;97.70;;;;;;4177181;28;20558;-52
2021/03/23 05:49:42;;;;;;;20.97;10.97;;;5.60;97.80;;;;;;4178946;28;20463;-51
2021/03/23 05:51:48;;;;;;;19.83;10.57;;;5.60;97.80;;;;;;4178157;28;20480;-52
2021/03/23 05:53:57;;;;;;;23.87;11.87;;;5.60;97.80;;;;;;4178778;28;20461;-52
2021/03/23 05:56:02;;;;;;;24.80;12.07;;;5.60;97.60;;;;;;4178793;28;20459;-52
2021/03/23 05:58:03;;;;;;;28.10;12.93;;;5.60;97.30;;;;;;4179990;28;20466;-51
2021/03/23 06:00:13;;;;;;;31.00;14.10;;;5.70;97.20;;;;;;4179014;28;21025;-52
2021/03/23 06:02:22;;;;;;;26.67;13.17;;;5.70;97.00;;;;;;4177330;28;20504;-52
2021/03/23 06:04:33;;;;;;;28.73;13.17;;;5.70;96.90;;;;;;4178202;28;20463;-51
2021/03/23 06:06:42;;;;;;;27.80;12.90;;;5.70;96.80;;;;;;4178140;28;20461;-52
2021/03/23 06:08:43;;;;;;;26.80;12.87;;;5.70;97.10;;;;;;4178773;28;20484;-52
2021/03/23 06:10:46;;;;;;;26.10;13.67;;;5.80;96.70;;;;;;4178668;28;21003;-52
2021/03/23 06:12:54;;;;;;;26.07;13.97;;;5.80;96.60;;;;;;4177839;28;20467;-52
2021/03/23 06:15:02;;;;;;;25.77;13.37;;;5.90;96.50;;;;;;4178679;28;20545;-52
2021/03/23 06:17:14;;;;;;;29.57;14.07;;;5.90;96.30;;;;;;4178915;28;20477;-52
2021/03/23 06:19:25;;;;;;;30.90;14.80;;;5.90;96.20;;;;;;4178311;28;20470;-51
2021/03/23 06:21:31;;;;;;;29.70;14.17;;;5.90;96.10;;;;;;4177734;28;20467;-52
2021/03/23 06:23:52;;;;;;;31.07;15.73;;;6.00;96.10;;;;;;4178386;28;20546;-52
2021/03/23 06:26:02;;;;;;;29.63;15.13;;;6.00;95.90;;;;;;4176960;28;20476;-51
2021/03/23 06:28:18;;;;;;;33.03;15.83;;;6.00;95.70;;;;;;4178064;28;20475;-51
2021/03/23 06:30:45;;;;;;;32.73;16.87;;;6.00;95.70;;;;;;4178467;28;21262;-52
2021/03/23 06:32:48;;;;;;;37.20;17.47;;;6.00;95.80;;;;;;4179601;28;20549;-52
2021/03/23 06:34:55;;;;;;;31.83;15.73;;;6.00;95.70;;;;;;4178741;28;20476;-52
2021/03/23 06:36:57;;;;;;;33.60;16.10;;;6.00;95.70;;;;;;4179135;28;20468;-52
2021/03/23 06:38:58;;;;;;;35.33;17.17;;;6.00;95.60;;;;;;4178314;28;22257;-51
2021/03/23 06:41:25;;;;;;;34.23;16.10;;;6.10;95.50;;;;;;4177989;28;20943;-51
2021/03/23 06:43:29;;;;;;;34.63;16.00;;;6.10;95.60;;;;;;4179235;28;20493;-51
2021/03/23 06:45:34;;;;;;;33.93;16.87;;;6.10;95.60;;;;;;4179166;28;20461;-51
2021/03/23 06:47:39;;;;;;;35.40;16.93;;;6.00;95.50;;;;;;4179472;28;20497;-51
2021/03/23 06:49:40;;;;;;;35.50;17.10;;;6.10;95.40;;;;;;4179535;28;20465;-51
2021/03/23 06:52:00;;;;;;;34.80;17.17;;;6.10;95.40;;;;;;4180609;28;20480;-51
2021/03/23 06:54:17;;;;;;;34.83;16.50;;;6.10;95.10;;;;;;4180229;28;20476;-51
2021/03/23 06:56:22;;;;;;;36.03;18.00;;;6.10;95.10;;;;;;4180082;28;20479;-51
2021/03/23 06:58:30;;;;;;;37.07;17.67;;;6.10;95.00;;;;;;4178715;28;20473;-51
2021/03/23 07:00:34;;;;;;;35.73;16.97;;;6.10;94.90;;;;;;4179931;28;20472;-52
2021/03/23 07:02:37;;;;;;;37.67;20.07;;;6.10;95.00;;;;;;4178009;28;20526;-51
2021/03/23 07:04:39;;;;;;;36.27;19.23;;;6.20;94.90;;;;;;4179773;28;20214;-51
2021/03/23 07:06:40;;;;;;;42.03;19.27;;;6.20;94.90;;;;;;4179253;28;20482;-51
2021/03/23 07:08:42;;;;;;;39.80;19.50;;;6.30;94.80;;;;;;4179105;28;20482;-51
2021/03/23 07:11:01;;;;;;;40.30;18.30;;;6.30;94.70;;;;;;4180806;28;20468;-51
2021/03/23 07:13:05;;;;;;;33.50;16.90;;;6.30;94.50;;;;;;4179667;28;20481;-51
2021/03/23 07:15:11;;;;;;;34.17;16.37;;;6.40;94.60;;;;;;4180405;28;20499;-51
2021/03/23 07:17:33;;;;;;;33.73;17.23;;;6.40;94.50;;;;;;4180513;28;20469;-51
2021/03/23 07:19:45;;;;;;;33.30;17.20;;;6.40;94.40;;;;;;4179175;28;20862;-51
2021/03/23 07:21:50;;;;;;;35.00;17.43;;;6.40;94.00;;;;;;4177813;28;20467;-51
2021/03/23 07:24:05;;;;;;;34.97;17.53;;;6.50;94.00;;;;;;4178214;28;20521;-51
2021/03/23 07:26:29;;;;;;;38.47;17.93;;;6.50;93.80;;;;;;4180866;28;20478;-52
2021/03/23 07:28:33;;;;;;;32.00;16.17;;;6.50;93.90;;;;;;4176918;28;20549;-52
2021/03/23 07:30:39;;;;;;;31.00;15.23;;;6.60;94.00;;;;;;4178816;28;20993;-51
2021/03/23 07:32:45;;;;;;;34.07;15.53;;;6.60;93.90;;;;;;4178780;28;20477;-52
2021/03/23 07:34:55;;;;;;;33.43;16.23;;;6.70;93.90;;;;;;4177975;28;20835;-52
2021/03/23 07:37:00;;;;;;;33.87;16.00;;;6.80;93.40;;;;;;4178046;28;20549;-52
2021/03/23 07:39:06;;;;;;;33.47;16.50;;;6.80;93.30;;;;;;4177766;28;20485;-52
2021/03/23 07:41:20;;;;;;;35.22;19.45;;;6.90;93.30;;;;;;4174897;28;21009;-52
2021/03/23 07:43:43;;;;;;;31.73;16.67;;;7.00;93.10;;;;;;4179965;28;20263;-52
2021/03/23 07:45:53;;;;;;;34.93;16.70;;;7.10;92.90;;;;;;4176339;28;20501;-52
2021/03/23 07:48:00;;;;;;;31.23;16.40;;;7.10;92.80;;;;;;4173451;28;22159;-52
2021/03/23 07:50:12;;;;;;;33.38;16.88;;;7.10;92.80;;;;;;4177352;28;20455;-52
2021/03/23 07:52:22;;;;;;;31.17;16.23;;;7.10;92.80;;;;;;4177233;28;20294;-52
2021/03/23 07:54:30;;;;;;;30.23;15.90;;;7.10;92.50;;;;;;4178717;28;20462;-51
2021/03/23 07:56:47;;;;;;;27.67;14.93;;;7.20;92.50;;;;;;4178969;28;20521;-52
2021/03/23 07:59:00;;;;;;;31.25;18.50;;;7.20;92.50;;;;;;4174710;28;20630;-51
2021/03/23 08:01:21;;;;;;;31.13;17.07;;;7.40;92.30;;;;;;4175511;28;20224;-52
2021/03/23 08:03:41;;;;;;;27.83;14.93;;;7.40;92.00;;;;;;4176129;28;20844;-52
2021/03/23 08:05:52;;;;;;;27.57;14.83;;;7.50;91.90;;;;;;4178372;28;20475;-52
2021/03/23 08:08:01;;;;;;;28.60;14.50;;;7.50;91.40;;;;;;4177035;28;20497;-52
2021/03/23 08:10:21;;;;;;;28.17;14.33;;;7.50;91.40;;;;;;4175811;28;20496;-52
2021/03/23 08:12:49;;;;;;;28.33;15.37;;;7.50;91.40;;;;;;4176301;28;20464;-52
2021/03/23 08:15:06;;;;;;;29.75;16.98;;;7.50;91.40;;;;;;4175896;28;20469;-54
2021/03/23 08:17:30;;;;;;;29.77;16.40;;;7.60;91.30;;;;;;4175250;28;20492;-52
2021/03/23 08:20:03;;;;;;;25.43;14.20;;;7.60;91.30;;;;;;4176445;28;20220;-52
2021/03/23 08:22:48;;;;;;;31.37;16.57;;;7.60;91.30;;;;;;4178411;28;21995;-54
2021/03/23 08:25:00;;;;;;;29.27;15.13;;;7.60;91.30;;;;;;4140748;28;21071;-55
2021/03/23 08:27:30;;;;;;;29.55;16.48;;;7.60;91.40;;;;;;4160994;28;20449;-54
2021/03/23 08:29:38;;;;;;;25.30;16.40;;;7.70;91.40;;;;;;4174096;28;20458;-56
2021/03/23 08:31:57;;;;;;;27.33;15.23;;;7.90;91.10;;;;;;4176165;28;21113;-55
2021/03/23 08:34:12;;;;;;;28.50;14.63;;;7.90;90.80;;;;;;4177454;28;20462;-55
2021/03/23 08:36:30;;;;;;;24.70;13.63;;;7.90;90.70;;;;;;4177311;28;20705;-55
2021/03/23 08:38:46;;;;;;;27.10;14.00;;;8.00;90.80;;;;;;4176444;28;20479;-55
2021/03/23 08:40:56;;;;;;;26.58;15.75;;;8.10;90.80;;;;;;4175216;28;20463;-55
2021/03/23 08:42:57;;;;;;;25.38;15.38;;;8.20;90.40;;;;;;4175796;28;21073;-56
2021/03/23 08:45:01;;;;;;;27.85;17.02;;;8.30;90.10;;;;;;4174482;28;20954;-55
2021/03/23 08:47:13;;;;;;;26.17;15.82;;;8.50;89.60;;;;;;4175753;28;21132;-55
2021/03/23 08:49:18;;;;;;;25.17;13.77;;;8.50;88.60;;;;;;4176804;28;20315;-53
2021/03/23 08:51:23;;;;;;;24.92;14.70;;;8.50;88.50;;;;;;4175028;28;20501;-54
2021/03/23 08:53:50;;;;;;;26.67;14.53;;;8.40;88.40;;;;;;4176127;28;20542;-54
2021/03/23 08:55:52;;;;;;;26.57;14.00;;;8.40;88.50;;;;;;4177217;28;20558;-54
2021/03/23 08:57:58;;;;;;;23.80;13.80;;;8.40;88.50;;;;;;4175430;28;20214;-56
2021/03/23 08:59:59;;;;;;;29.03;13.90;;;8.40;88.30;;;;;;4176503;28;20530;-55
2021/03/23 09:02:01;;;;;;;21.73;12.57;;;8.50;88.50;;;;;;4175547;28;20630;-55
2021/03/23 09:04:28;;;;;;;21.33;11.87;;;8.50;88.20;;;;;;4176291;28;22414;-55
2021/03/23 09:06:47;;;;;;;24.03;12.93;;;8.60;87.80;;;;;;4175451;28;20540;-55
2021/03/23 09:08:54;;;;;;;22.07;11.57;;;8.70;87.40;;;;;;4177170;28;20236;-55
2021/03/23 09:10:59;;;;;;;23.17;12.27;;;8.80;86.80;;;;;;4175898;28;20486;-55
2021/03/23 09:13:01;;;;;;;25.30;12.40;;;9.00;86.20;;;;;;4174933;28;20458;-55
2021/03/23 09:15:19;;;;;;;29.20;15.35;;;9.00;84.60;;;;;;4174719;28;20455;-55
2021/03/23 09:17:36;;;;;;;27.83;13.60;;;9.10;83.70;;;;;;4175903;28;20237;-55
2021/03/23 09:19:44;;;;;;;25.43;13.20;;;9.10;83.20;;;;;;4176751;28;20202;-55
2021/03/23 09:22:27;;;;;;;22.27;12.27;;;9.10;83.00;;;;;;4175421;28;20240;-55
2021/03/23 09:24:32;;;;;;;28.00;13.80;;;9.20;83.20;;;;;;4178614;28;20234;-55
2021/03/23 09:26:44;;;;;;;26.27;12.93;;;9.20;82.50;;;;;;4179811;28;20256;-55
2021/03/23 09:28:46;;;;;;;25.23;13.63;;;9.20;82.70;;;;;;4180300;28;20653;-55
2021/03/23 09:30:53;;;;;;;26.83;13.20;;;9.30;82.10;;;;;;4179005;28;20311;-55
2021/03/23 09:33:15;;;;;;;24.03;12.97;;;9.40;81.50;;;;;;4179424;28;20223;-55
2021/03/23 09:35:20;;;;;;;22.73;12.10;;;9.40;81.20;;;;;;4180666;28;20214;-55
2021/03/23 09:37:33;;;;;;;22.23;12.37;;;9.50;82.10;;;;;;4180647;28;20218;-55
2021/03/23 09:39:46;;;;;;;25.03;12.87;;;9.60;81.20;;;;;;4181887;28;20881;-55
2021/03/23 09:41:51;;;;;;;24.02;14.15;;;9.80;80.70;;;;;;4178721;28;20466;-55
2021/03/23 09:43:54;;;;;;;21.57;11.70;;;10.00;79.20;;;;;;4179897;28;20218;-55
2021/03/23 09:46:02;;;;;;;25.45;14.15;;;10.00;76.10;;;;;;4177998;28;22486;-56
2021/03/23 09:48:44;;;;;;;24.58;15.23;;;10.20;75.60;;;;;;4178289;28;20990;-55
2021/03/23 09:51:01;;;;;;;23.40;13.67;;;10.50;73.80;;;;;;4179775;28;20199;-55
2021/03/23 09:53:12;;;;;;;22.73;12.57;;;10.50;73.30;;;;;;4178637;28;20222;-54
2021/03/23 09:55:15;;;;;;;24.33;12.90;;;10.40;72.20;;;;;;4178690;28;20674;-55
2021/03/23 09:57:20;;;;;;;26.93;12.83;;;10.40;70.10;;;;;;4178226;28;20220;-56
2021/03/23 09:59:25;;;;;;;28.73;12.97;;;10.10;70.50;;;;;;4180508;28;20215;-55
2021/03/23 10:01:26;;;;;;;24.98;13.48;;;10.00;72.60;;;;;;4179014;28;20451;-55
2021/03/23 10:03:36;;;;;;;20.63;13.30;;;10.10;73.30;;;;;;4177145;28;20528;-55
2021/03/23 10:05:38;;;;;;;24.37;12.60;;;10.40;72.30;;;;;;4179227;28;20346;-55
2021/03/23 10:07:42;;;;;;;23.70;12.30;;;10.40;71.00;;;;;;4179452;28;20221;-55
2021/03/23 10:09:43;;;;;;;25.03;12.30;;;10.40;69.70;;;;;;4177455;28;20278;-55
2021/03/23 10:11:46;;;;;;;19.40;11.57;;;10.40;71.00;;;;;;4177095;28;20216;-56
2021/03/23 10:13:51;;;;;;;22.20;13.38;;;10.50;70.90;;;;;;4175805;28;20458;-55
2021/03/23 10:15:52;;;;;;;25.20;12.93;;;10.60;70.50;;;;;;4177770;28;20458;-55
2021/03/23 10:18:08;;;;;;;25.87;12.50;;;10.70;69.50;;;;;;4177881;28;20551;-55
2021/03/23 10:20:13;;;;;;;23.03;12.20;;;10.80;69.70;;;;;;4178733;28;20690;-55
2021/03/23 10:22:16;;;;;;;24.63;12.77;;;10.90;68.30;;;;;;4178514;28;20238;-55
2021/03/23 10:24:22;;;;;;;25.00;13.60;;;10.80;66.50;;;;;;4177675;28;20442;-55
2021/03/23 10:26:26;;;;;;;21.57;11.80;;;10.80;67.90;;;;;;4180132;28;20211;-55
2021/03/23 10:28:30;;;;;;;25.73;12.13;;;10.80;68.00;;;;;;4179963;28;20221;-55
2021/03/23 10:30:35;;;;;;;21.03;11.30;;;10.90;67.90;;;;;;4178301;28;20211;-55
2021/03/23 10:32:46;;;;;;;20.67;11.00;;;11.00;67.60;;;;;;4179550;28;20223;-55
2021/03/23 10:35:07;;;;;;;20.20;11.00;;;11.10;66.80;;;;;;4178066;28;20277;-55
2021/03/23 10:37:20;;;;;;;22.17;12.17;;;11.20;65.90;;;;;;4177813;28;20220;-56
2021/03/23 10:39:27;;;;;;;20.20;10.83;;;11.30;63.70;;;;;;4178833;28;20228;-55
2021/03/23 10:41:35;;;;;;;22.03;10.63;;;11.40;64.30;;;;;;4180008;28;20221;-55
2021/03/23 10:43:38;;;;;;;22.45;12.40;;;11.50;63.00;;;;;;4175669;28;20504;-55
2021/03/23 10:45:43;;;;;;;19.73;11.13;;;11.80;60.80;;;;;;4177291;28;20221;-55
2021/03/23 10:47:45;;;;;;;21.08;11.55;;;11.90;58.80;;;;;;4177715;28;20457;-55